Vaughn, MT (59487)

7:22 PM MST on February 20, 2017 (GMT -0700)
Valley | | Change Station

Elev 3363 ft 47.54 °N, 111.62 °W | Updated 56 seconds ago

Clear
Clear
36.3 °F
Feels Like 36 °F
N
2.7
Wind Variable Wind from SW

Today
High -- | Low -- °F
--% Chance of Precip.
Yesterday
High -- | Low -- °F
Precip. -- in
Pressure 29.70 in
Visibility 10.0 miles
Clouds Clear
Windchill 36 °F
Dew Point 34 °F
Humidity 91%
Rainfall 0.14 in
Snow Depth Not available.
7:22 AM 5:57 PM
Waning Crescent, 29% visible
METAR KGTF 210153Z 23008KT 10SM CLR 01/M02 A2960 RMK AO2 SLP058 OCNL LTG DSNT SE T00111017
Pressure 29.70 in
Visibility 10.0 miles
Clouds Clear
Windchill 36 °F
Dew Point 34 °F
Humidity 91%
Rainfall 0.14 in
Snow Depth Not available.
7:22 AM 5:57 PM
Waning Crescent, 29% visible
METAR KGTF 210153Z 23008KT 10SM CLR 01/M02 A2960 RMK AO2 SLP058 OCNL LTG DSNT SE T00111017

Get Your Daily Forecast Email!

Thanks for signing up!

Be on the lookout for a verification email in your inbox.

You'll start receiving the daily forecast at 8 AM.

×

10-Day Weather Forecast

Almanac

Astronomy

Feb. 20, 2017 Rise Set
Actual Time
Civil Twilight
Nautical Twilight
Astronomical Twilight
Moon
Length of Visible Light
Length of Day
Tomorrow will be .
, % of the Moon is Illuminated

Today's Extremes

State Highs State Lows

Community

WunderPhotos

Upload Photos

1,962,540 photos uploaded!

WunderBlog® & News

Nearby

Air Quality

  Air Quality AQ Index Pollutant
Not available.

Snow Depth

Station Depth Elevation

Earthquake Activity

City Distance Mag. Time & Date
Minimum magnitude displayed is 2.5.

Coastal Water Temperatures

Place Temperature

Stations

Nearby Weather Stations

Station Location Temp. Windchill Dew Point Humidity Wind Precip. Elev Updated Type
                   

Watches & Warnings

There are currently no watches in effect.